<?xml version="1.0" encoding="UTF-8" standalone="no" ?>
<gpx xmlns="http://www.topografix.com/GPX/1/1" xmlns:xsi="http://www.w3.org/2001/XMLSchema-instance" xsi:schemaLocation="http://www.topografix.com/GPX/1/1 http://www.topografix.com/GPX/1/1/gpx.xsd" version="1.1" creator="VisuGPX - https://www.visugpx.com">
  <metadata>
    <name>De Meillerie à Salvigny</name>
    <desc><![CDATA[Randonnée en Haute-Savoie]]></desc>
  </metadata>
  <trk>
    <name><![CDATA[ACTIVE LOG: 26 JUL 2015 08:37]]></name>
    <trkseg>
      <trkpt lat="46.39138" lon="6.73061">
        <ele>1041.25</ele>
        <time>2015-07-26T06:37:38Z</time>
      </trkpt>
      <trkpt lat="46.39144" lon="6.72981">
        <ele>1042.69</ele>
        <time>2015-07-26T06:38:43Z</time>
      </trkpt>
      <trkpt lat="46.39134" lon="6.7287">
        <ele>1045.09</ele>
        <time>2015-07-26T06:39:48Z</time>
      </trkpt>
      <trkpt lat="46.39123" lon="6.72947">
        <ele>1048.94</ele>
        <time>2015-07-26T06:40:53Z</time>
      </trkpt>
      <trkpt lat="46.39087" lon="6.7304">
        <ele>1054.7</ele>
        <time>2015-07-26T06:41:58Z</time>
      </trkpt>
      <trkpt lat="46.39048" lon="6.73103">
        <ele>1063.36</ele>
        <time>2015-07-26T06:43:03Z</time>
      </trkpt>
      <trkpt lat="46.39017" lon="6.73131">
        <ele>1069.12</ele>
        <time>2015-07-26T06:44:08Z</time>
      </trkpt>
      <trkpt lat="46.38985" lon="6.732">
        <ele>1079.22</ele>
        <time>2015-07-26T06:45:13Z</time>
      </trkpt>
      <trkpt lat="46.38949" lon="6.73249">
        <ele>1087.87</ele>
        <time>2015-07-26T06:46:18Z</time>
      </trkpt>
      <trkpt lat="46.38902" lon="6.73306">
        <ele>1097.48</ele>
        <time>2015-07-26T06:47:23Z</time>
      </trkpt>
      <trkpt lat="46.38859" lon="6.73367">
        <ele>1103.73</ele>
        <time>2015-07-26T06:48:28Z</time>
      </trkpt>
      <trkpt lat="46.38843" lon="6.73431">
        <ele>1109.5</ele>
        <time>2015-07-26T06:49:33Z</time>
      </trkpt>
      <trkpt lat="46.3885" lon="6.73509">
        <ele>1113.82</ele>
        <time>2015-07-26T06:50:38Z</time>
      </trkpt>
      <trkpt lat="46.38842" lon="6.73512">
        <ele>1115.75</ele>
        <time>2015-07-26T06:51:43Z</time>
      </trkpt>
      <trkpt lat="46.38825" lon="6.73521">
        <ele>1116.23</ele>
        <time>2015-07-26T06:52:48Z</time>
      </trkpt>
      <trkpt lat="46.38808" lon="6.73546">
        <ele>1124.88</ele>
        <time>2015-07-26T06:53:53Z</time>
      </trkpt>
      <trkpt lat="46.38784" lon="6.73572">
        <ele>1133.53</ele>
        <time>2015-07-26T06:54:58Z</time>
      </trkpt>
      <trkpt lat="46.38764" lon="6.73578">
        <ele>1141.7</ele>
        <time>2015-07-26T06:56:03Z</time>
      </trkpt>
      <trkpt lat="46.38733" lon="6.73559">
        <ele>1150.35</ele>
        <time>2015-07-26T06:57:08Z</time>
      </trkpt>
      <trkpt lat="46.38716" lon="6.73571">
        <ele>1157.56</ele>
        <time>2015-07-26T06:58:13Z</time>
      </trkpt>
      <trkpt lat="46.3869" lon="6.73567">
        <ele>1161.89</ele>
        <time>2015-07-26T06:59:18Z</time>
      </trkpt>
      <trkpt lat="46.38676" lon="6.73585">
        <ele>1169.1</ele>
        <time>2015-07-26T07:00:23Z</time>
      </trkpt>
      <trkpt lat="46.38652" lon="6.73584">
        <ele>1179.19</ele>
        <time>2015-07-26T07:01:28Z</time>
      </trkpt>
      <trkpt lat="46.38637" lon="6.73587">
        <ele>1184.48</ele>
        <time>2015-07-26T07:02:33Z</time>
      </trkpt>
      <trkpt lat="46.38626" lon="6.73576">
        <ele>1194.58</ele>
        <time>2015-07-26T07:03:38Z</time>
      </trkpt>
      <trkpt lat="46.38623" lon="6.73618">
        <ele>1204.19</ele>
        <time>2015-07-26T07:04:43Z</time>
      </trkpt>
      <trkpt lat="46.38615" lon="6.73669">
        <ele>1215.24</ele>
        <time>2015-07-26T07:05:48Z</time>
      </trkpt>
      <trkpt lat="46.38606" lon="6.73704">
        <ele>1221.49</ele>
        <time>2015-07-26T07:06:53Z</time>
      </trkpt>
      <trkpt lat="46.38588" lon="6.73716">
        <ele>1228.22</ele>
        <time>2015-07-26T07:07:58Z</time>
      </trkpt>
      <trkpt lat="46.38578" lon="6.73708">
        <ele>1231.11</ele>
        <time>2015-07-26T07:09:03Z</time>
      </trkpt>
      <trkpt lat="46.38577" lon="6.73722">
        <ele>1236.39</ele>
        <time>2015-07-26T07:10:08Z</time>
      </trkpt>
      <trkpt lat="46.38563" lon="6.73744">
        <ele>1244.08</ele>
        <time>2015-07-26T07:11:13Z</time>
      </trkpt>
      <trkpt lat="46.38552" lon="6.73758">
        <ele>1251.29</ele>
        <time>2015-07-26T07:12:18Z</time>
      </trkpt>
      <trkpt lat="46.38554" lon="6.73766">
        <ele>1252.25</ele>
        <time>2015-07-26T07:13:23Z</time>
      </trkpt>
      <trkpt lat="46.3855" lon="6.73773">
        <ele>1258.5</ele>
        <time>2015-07-26T07:14:28Z</time>
      </trkpt>
      <trkpt lat="46.38568" lon="6.73806">
        <ele>1262.83</ele>
        <time>2015-07-26T07:15:33Z</time>
      </trkpt>
      <trkpt lat="46.38554" lon="6.73814">
        <ele>1274.36</ele>
        <time>2015-07-26T07:16:38Z</time>
      </trkpt>
      <trkpt lat="46.38523" lon="6.738">
        <ele>1284.46</ele>
        <time>2015-07-26T07:17:43Z</time>
      </trkpt>
      <trkpt lat="46.3851" lon="6.73788">
        <ele>1293.59</ele>
        <time>2015-07-26T07:18:48Z</time>
      </trkpt>
      <trkpt lat="46.38499" lon="6.73804">
        <ele>1302.72</ele>
        <time>2015-07-26T07:19:53Z</time>
      </trkpt>
      <trkpt lat="46.38491" lon="6.73806">
        <ele>1306.09</ele>
        <time>2015-07-26T07:20:58Z</time>
      </trkpt>
      <trkpt lat="46.3849" lon="6.73795">
        <ele>1309.45</ele>
        <time>2015-07-26T07:22:03Z</time>
      </trkpt>
      <trkpt lat="46.38489" lon="6.73777">
        <ele>1317.62</ele>
        <time>2015-07-26T07:23:08Z</time>
      </trkpt>
      <trkpt lat="46.38502" lon="6.73795">
        <ele>1326.76</ele>
        <time>2015-07-26T07:24:13Z</time>
      </trkpt>
      <trkpt lat="46.38459" lon="6.73825">
        <ele>1333.49</ele>
        <time>2015-07-26T07:25:18Z</time>
      </trkpt>
      <trkpt lat="46.38444" lon="6.73856">
        <ele>1339.73</ele>
        <time>2015-07-26T07:26:23Z</time>
      </trkpt>
      <trkpt lat="46.38444" lon="6.73863">
        <ele>1348.87</ele>
        <time>2015-07-26T07:27:28Z</time>
      </trkpt>
      <trkpt lat="46.3843" lon="6.73883">
        <ele>1357.52</ele>
        <time>2015-07-26T07:28:33Z</time>
      </trkpt>
      <trkpt lat="46.38424" lon="6.73866">
        <ele>1361.84</ele>
        <time>2015-07-26T07:29:38Z</time>
      </trkpt>
      <trkpt lat="46.38398" lon="6.73838">
        <ele>1372.42</ele>
        <time>2015-07-26T07:30:43Z</time>
      </trkpt>
      <trkpt lat="46.3838" lon="6.73818">
        <ele>1378.67</ele>
        <time>2015-07-26T07:31:48Z</time>
      </trkpt>
      <trkpt lat="46.38365" lon="6.73836">
        <ele>1384.92</ele>
        <time>2015-07-26T07:32:53Z</time>
      </trkpt>
      <trkpt lat="46.3835" lon="6.73858">
        <ele>1393.09</ele>
        <time>2015-07-26T07:33:58Z</time>
      </trkpt>
      <trkpt lat="46.38342" lon="6.7388">
        <ele>1399.82</ele>
        <time>2015-07-26T07:35:03Z</time>
      </trkpt>
      <trkpt lat="46.38343" lon="6.73876">
        <ele>1404.62</ele>
        <time>2015-07-26T07:36:08Z</time>
      </trkpt>
      <trkpt lat="46.38338" lon="6.73874">
        <ele>1411.35</ele>
        <time>2015-07-26T07:37:13Z</time>
      </trkpt>
      <trkpt lat="46.38326" lon="6.7386">
        <ele>1415.2</ele>
        <time>2015-07-26T07:38:18Z</time>
      </trkpt>
      <trkpt lat="46.38314" lon="6.73842">
        <ele>1420.49</ele>
        <time>2015-07-26T07:39:23Z</time>
      </trkpt>
      <trkpt lat="46.38291" lon="6.73841">
        <ele>1429.14</ele>
        <time>2015-07-26T07:40:28Z</time>
      </trkpt>
      <trkpt lat="46.38275" lon="6.73866">
        <ele>1436.35</ele>
        <time>2015-07-26T07:41:33Z</time>
      </trkpt>
      <trkpt lat="46.38255" lon="6.73884">
        <ele>1445</ele>
        <time>2015-07-26T07:42:38Z</time>
      </trkpt>
      <trkpt lat="46.38245" lon="6.73911">
        <ele>1450.77</ele>
        <time>2015-07-26T07:43:43Z</time>
      </trkpt>
      <trkpt lat="46.38264" lon="6.73944">
        <ele>1460.86</ele>
        <time>2015-07-26T07:44:48Z</time>
      </trkpt>
      <trkpt lat="46.38266" lon="6.73974">
        <ele>1467.11</ele>
        <time>2015-07-26T07:45:53Z</time>
      </trkpt>
      <trkpt lat="46.38249" lon="6.73981">
        <ele>1474.32</ele>
        <time>2015-07-26T07:46:58Z</time>
      </trkpt>
      <trkpt lat="46.38242" lon="6.74004">
        <ele>1484.89</ele>
        <time>2015-07-26T07:48:03Z</time>
      </trkpt>
      <trkpt lat="46.38209" lon="6.7399">
        <ele>1491.62</ele>
        <time>2015-07-26T07:49:08Z</time>
      </trkpt>
      <trkpt lat="46.38216" lon="6.73999">
        <ele>1497.39</ele>
        <time>2015-07-26T07:50:13Z</time>
      </trkpt>
      <trkpt lat="46.38195" lon="6.74013">
        <ele>1507.97</ele>
        <time>2015-07-26T07:51:18Z</time>
      </trkpt>
      <trkpt lat="46.3818" lon="6.74026">
        <ele>1515.18</ele>
        <time>2015-07-26T07:52:23Z</time>
      </trkpt>
      <trkpt lat="46.38156" lon="6.73996">
        <ele>1524.31</ele>
        <time>2015-07-26T07:53:28Z</time>
      </trkpt>
      <trkpt lat="46.38142" lon="6.7398">
        <ele>1531.04</ele>
        <time>2015-07-26T07:54:33Z</time>
      </trkpt>
      <trkpt lat="46.38113" lon="6.73989">
        <ele>1538.25</ele>
        <time>2015-07-26T07:55:38Z</time>
      </trkpt>
      <trkpt lat="46.38093" lon="6.73971">
        <ele>1544.5</ele>
        <time>2015-07-26T07:56:43Z</time>
      </trkpt>
    </trkseg>
  </trk>
</gpx>